Time;durP1;ratioP1;P1;durP2;ratioP2;P2;SDS_P1;SDS_P2;PMS_P1;PMS_P2;Temp;Humidity;BMP_temperature;BMP_pressure;BME280_temperature;BME280_humidity;BME280_pressure;Samples;Min_cycle;Max_cycle;Signal;HPM_P1;HPM_P2
2021/12/22 00:02:13;;;;;;;11.13;4.72;;;;;;;6.99;100.00;100513.53;4964545;28;20057;-56
2021/12/22 00:05:21;;;;;;;5.60;3.08;;;;;;;6.91;100.00;100509.38;4959151;28;20609;-57
2021/12/22 00:08:26;;;;;;;7.05;3.72;;;;;;;6.92;100.00;100499.09;4976719;28;20528;-58
2021/12/22 00:11:29;;;;;;;12.65;3.85;;;;;;;6.86;100.00;100504.38;4989083;28;20139;-56
2021/12/22 00:14:32;;;;;;;11.45;4.03;;;;;;;6.96;100.00;100514.41;5000206;28;20060;-57
2021/12/22 00:17:35;;;;;;;10.40;4.10;;;;;;;7.05;100.00;100511.78;4979422;28;20077;-56
2021/12/22 00:20:38;;;;;;;10.82;4.13;;;;;;;7.09;100.00;100506.94;4981692;28;20245;-56
2021/12/22 00:23:42;;;;;;;8.02;3.53;;;;;;;7.03;100.00;100505.91;5004568;28;20055;-56
2021/12/22 00:26:45;;;;;;;5.10;2.22;;;;;;;7.01;100.00;100497.25;5010751;28;20056;-56
2021/12/22 00:29:50;;;;;;;9.55;2.63;;;;;;;7.01;100.00;100488.19;5021397;28;20052;-57
2021/12/22 00:32:56;;;;;;;14.57;3.03;;;;;;;6.97;100.00;100477.22;5007108;28;20853;-57
2021/12/22 00:35:58;;;;;;;6.53;3.22;;;;;;;6.96;100.00;100478.41;4975861;28;20045;-57
2021/12/22 00:39:02;;;;;;;6.07;2.33;;;;;;;6.89;100.00;100460.00;4961271;28;20194;-57
2021/12/22 00:42:05;;;;;;;11.30;3.75;;;;;;;6.85;100.00;100455.75;4975035;28;20768;-57
2021/12/22 00:45:08;;;;;;;26.30;4.00;;;;;;;6.79;100.00;100449.97;4966080;28;20395;-57
2021/12/22 00:48:11;;;;;;;6.43;2.80;;;;;;;6.64;100.00;100445.25;4945212;28;20053;-57
2021/12/22 00:51:14;;;;;;;8.40;2.88;;;;;;;6.63;100.00;100447.22;4956285;28;20053;-56
2021/12/22 00:54:17;;;;;;;3.45;1.83;;;;;;;6.55;100.00;100450.59;4969097;28;20106;-57
2021/12/22 00:57:21;;;;;;;14.95;4.25;;;;;;;6.59;100.00;100441.00;4960382;28;20114;-57
2021/12/22 01:00:26;;;;;;;13.75;3.92;;;;;;;6.60;100.00;100445.34;4951375;28;20101;-56
2021/12/22 01:03:29;;;;;;;3.28;2.55;;;;;;;6.61;100.00;100443.34;4948038;28;20506;-57
2021/12/22 01:06:31;;;;;;;11.63;3.08;;;;;;;6.62;100.00;100440.16;4931685;28;20146;-56
2021/12/22 01:09:35;;;;;;;12.80;2.95;;;;;;;6.58;100.00;100439.44;4939233;28;20066;-57
2021/12/22 01:12:39;;;;;;;6.07;2.90;;;;;;;6.60;100.00;100437.03;4971295;28;20441;-56
2021/12/22 01:15:43;;;;;;;16.50;6.20;;;;;;;6.61;100.00;100437.78;4971539;28;20193;-56
2021/12/22 01:18:46;;;;;;;12.02;3.33;;;;;;;6.58;100.00;100439.44;4980745;28;20192;-57
2021/12/22 01:21:57;;;;;;;16.15;5.47;;;;;;;6.58;100.00;100424.84;4989037;28;20251;-56
2021/12/22 01:25:03;;;;;;;7.72;3.65;;;;;;;6.49;100.00;100430.22;4990962;28;20098;-56
2021/12/22 01:28:06;;;;;;;10.55;3.58;;;;;;;6.65;100.00;100438.47;4953594;28;20059;-57
2021/12/22 01:31:14;;;;;;;6.55;3.85;;;;;;;6.63;100.00;100418.75;4953562;28;20067;-57
2021/12/22 01:34:17;;;;;;;10.65;2.95;;;;;;;6.69;100.00;100415.03;4971253;28;20058;-56
2021/12/22 01:37:20;;;;;;;15.40;4.70;;;;;;;6.70;100.00;100424.13;4971349;28;20121;-56
2021/12/22 01:40:24;;;;;;;13.32;5.32;;;;;;;6.66;100.00;100417.91;4972914;28;20188;-58
2021/12/22 01:43:28;;;;;;;8.68;3.10;;;;;;;6.60;100.00;100408.59;4973242;28;20110;-56
2021/12/22 01:49:49;;;;;;;9.27;3.85;;;;;;;6.19;100.00;100413.97;4952284;28;20053;-56
2021/12/22 01:52:52;;;;;;;10.60;5.35;;;;;;;5.98;100.00;100407.75;4953737;28;20212;-57
2021/12/22 01:56:23;;;;;;;19.23;3.60;;;;;;;5.87;100.00;100395.34;4982235;28;20108;-56
2021/12/22 01:59:27;;;;;;;8.90;2.35;;;;;;;5.63;100.00;100402.22;5030679;28;20055;-57
2021/12/22 02:02:31;;;;;;;10.23;3.20;;;;;;;5.43;100.00;100399.50;4971452;28;20153;-56
2021/12/22 02:05:33;;;;;;;11.43;3.78;;;;;;;5.21;100.00;100399.16;5003020;28;20052;-57
2021/12/22 02:08:38;;;;;;;17.85;6.88;;;;;;;5.21;100.00;100387.34;5000418;28;20612;-56
2021/12/22 02:11:41;;;;;;;6.18;2.42;;;;;;;5.08;100.00;100383.66;4994309;28;20068;-56
2021/12/22 02:14:45;;;;;;;10.80;4.22;;;;;;;5.03;100.00;100381.38;5002783;28;20240;-56
2021/12/22 02:17:49;;;;;;;9.68;4.25;;;;;;;4.94;100.00;100379.19;5024052;28;20457;-56
2021/12/22 02:20:52;;;;;;;12.82;3.53;;;;;;;4.90;100.00;100367.47;5038019;28;20060;-56
2021/12/22 02:23:56;;;;;;;15.13;4.45;;;;;;;4.87;100.00;100373.84;4990405;28;20058;-56
2021/12/22 02:27:05;;;;;;;11.05;4.38;;;;;;;4.80;100.00;100371.22;5005061;28;20060;-56
2021/12/22 02:30:16;;;;;;;7.57;3.35;;;;;;;4.84;100.00;100368.38;4992173;28;20175;-56
2021/12/22 02:33:24;;;;;;;12.82;4.35;;;;;;;4.81;100.00;100367.25;5013188;28;20518;-56
2021/12/22 02:36:34;;;;;;;6.57;2.45;;;;;;;4.79;100.00;100361.38;5017056;28;20091;-56
2021/12/22 02:39:45;;;;;;;12.68;3.58;;;;;;;4.74;100.00;100370.16;4957008;28;20066;-56
2021/12/22 02:42:53;;;;;;;7.70;3.35;;;;;;;4.71;100.00;100372.97;4993614;28;20561;-56
2021/12/22 02:45:56;;;;;;;6.18;3.47;;;;;;;4.32;100.00;100371.69;5028411;28;20492;-56
2021/12/22 02:49:05;;;;;;;20.42;5.60;;;;;;;4.49;100.00;100367.84;4991426;28;20422;-56
2021/12/22 02:52:08;;;;;;;6.00;4.35;;;;;;;3.89;100.00;100365.34;5001182;28;20166;-56
2021/12/22 02:55:11;;;;;;;7.85;3.75;;;;;;;4.16;100.00;100352.28;4991167;28;20076;-56
2021/12/22 03:04:45;;;;;;;16.55;5.45;;;;;;;4.73;100.00;100374.09;4990750;28;20060;-55
2021/12/22 03:07:49;;;;;;;11.77;4.05;;;;;;;4.71;100.00;100370.19;4955803;28;20101;-56
2021/12/22 03:10:53;;;;;;;11.98;3.83;;;;;;;4.67;100.00;100372.25;4957854;28;20077;-57
2021/12/22 03:13:56;;;;;;;3.78;2.67;;;;;;;4.59;100.00;100368.88;4952503;28;20069;-56
2021/12/22 03:16:59;;;;;;;13.65;3.63;;;;;;;4.65;100.00;100356.13;4956659;28;20180;-57
2021/12/22 03:20:04;;;;;;;10.63;5.57;;;;;;;4.70;100.00;100349.34;4969715;28;20157;-56
2021/12/22 03:23:07;;;;;;;19.13;5.13;;;;;;;4.69;100.00;100353.31;4996847;28;20077;-56
2021/12/22 03:26:13;;;;;;;10.30;3.42;;;;;;;4.66;100.00;100351.41;4994373;28;20061;-56
2021/12/22 03:29:18;;;;;;;8.65;3.72;;;;;;;4.47;100.00;100350.94;4965963;28;20144;-56
2021/12/22 03:32:21;;;;;;;8.15;2.50;;;;;;;4.55;100.00;100343.31;4987657;28;20076;-56
2021/12/22 03:35:25;;;;;;;8.07;3.58;;;;;;;4.51;100.00;100346.16;4968699;28;20057;-56
2021/12/22 03:38:29;;;;;;;6.35;2.28;;;;;;;4.46;100.00;100343.88;4974554;28;20553;-58
2021/12/22 03:41:34;;;;;;;11.40;3.10;;;;;;;4.36;100.00;100339.34;4997107;28;20091;-56
2021/12/22 03:44:38;;;;;;;7.40;3.08;;;;;;;4.24;100.00;100345.47;4984687;28;20064;-56
2021/12/22 03:47:41;;;;;;;3.75;3.22;;;;;;;4.13;100.00;100342.13;5015963;28;20112;-56
2021/12/22 03:50:45;;;;;;;12.38;4.88;;;;;;;4.11;100.00;100339.00;5017471;28;20461;-56
2021/12/22 03:53:48;;;;;;;8.60;3.47;;;;;;;3.90;100.00;100344.84;5018156;28;20454;-56
2021/12/22 03:56:50;;;;;;;14.88;3.90;;;;;;;3.78;100.00;100337.19;5005487;28;20233;-57
2021/12/22 03:59:57;;;;;;;14.18;2.67;;;;;;;3.62;100.00;100335.06;4998795;28;20647;-56
2021/12/22 04:03:02;;;;;;;21.33;5.95;;;;;;;3.64;100.00;100326.38;4973316;28;20136;-56
2021/12/22 04:06:06;;;;;;;7.40;3.22;;;;;;;3.48;100.00;100318.78;4996417;28;20110;-56
2021/12/22 04:09:09;;;;;;;11.68;2.72;;;;;;;3.94;100.00;100317.25;5028769;28;20059;-56
2021/12/22 04:12:13;;;;;;;16.23;5.32;;;;;;;3.96;100.00;100301.88;5028591;28;20056;-56
2021/12/22 04:15:17;;;;;;;20.25;3.90;;;;;;;3.92;100.00;100292.84;5013247;28;20076;-56
2021/12/22 04:18:21;;;;;;;17.35;4.10;;;;;;;3.71;100.00;100282.19;4976405;28;20053;-56
2021/12/22 04:21:24;;;;;;;10.95;3.35;;;;;;;3.78;100.00;100280.13;5006645;28;20076;-56
2021/12/22 04:24:27;;;;;;;12.57;4.95;;;;;;;3.83;100.00;100267.84;4982021;28;20057;-56
2021/12/22 04:27:29;;;;;;;25.23;2.47;;;;;;;3.78;100.00;100263.59;4981941;28;20127;-56
2021/12/22 04:30:36;;;;;;;9.18;2.85;;;;;;;3.74;100.00;100264.84;4974890;28;20208;-56
2021/12/22 04:33:39;;;;;;;4.20;1.85;;;;;;;3.83;100.00;100262.34;5007310;28;20211;-56
2021/12/22 04:36:42;;;;;;;7.18;3.28;;;;;;;3.71;100.00;100254.66;5018929;28;20080;-56
2021/12/22 04:39:45;;;;;;;43.65;5.07;;;;;;;3.33;100.00;100250.56;5016306;28;20068;-57
2021/12/22 04:42:48;;;;;;;7.03;3.05;;;;;;;3.36;100.00;100238.72;5016729;28;20143;-56
2021/12/22 04:45:51;;;;;;;12.98;2.30;;;;;;;3.25;100.00;100235.38;5019616;28;20049;-56
2021/12/22 04:48:54;;;;;;;9.40;3.67;;;;;;;3.21;100.00;100235.41;4998206;28;20051;-56
2021/12/22 04:51:59;;;;;;;6.45;2.67;;;;;;;3.25;100.00;100224.38;4985513;28;20061;-56
2021/12/22 04:55:03;;;;;;;10.52;3.47;;;;;;;3.23;100.00;100232.25;5015857;28;20060;-56
2021/12/22 04:58:07;;;;;;;14.43;5.75;;;;;;;3.11;100.00;100224.56;5014461;28;20071;-56
2021/12/22 05:01:10;;;;;;;9.63;2.67;;;;;;;3.01;100.00;100229.81;5021747;28;20080;-56
2021/12/22 05:04:13;;;;;;;9.88;3.28;;;;;;;3.22;100.00;100230.69;4977723;28;20107;-56
2021/12/22 05:07:16;;;;;;;5.80;2.65;;;;;;;3.50;100.00;100233.78;5011514;28;20142;-56
2021/12/22 05:10:21;;;;;;;5.20;2.67;;;;;;;3.57;100.00;100224.63;5032740;28;20095;-57
2021/12/22 05:13:24;;;;;;;13.48;4.80;;;;;;;3.61;100.00;100217.88;4990352;28;20115;-56
2021/12/22 05:16:28;;;;;;;8.32;3.03;;;;;;;3.35;100.00;100209.66;4985437;28;20076;-56
2021/12/22 05:19:31;;;;;;;2.42;2.22;;;;;;;3.46;100.00;100210.25;5010275;28;20196;-55
2021/12/22 05:22:34;;;;;;;7.75;2.15;;;;;;;3.53;100.00;100210.16;5036051;28;20575;-56
2021/12/22 05:25:37;;;;;;;7.63;2.58;;;;;;;3.56;100.00;100204.56;5033952;28;20056;-56
2021/12/22 05:28:40;;;;;;;23.60;4.47;;;;;;;3.64;100.00;100210.72;5028015;28;20087;-56
2021/12/22 05:31:43;;;;;;;5.78;2.85;;;;;;;3.62;100.00;100215.88;5025235;28;20676;-56
2021/12/22 05:34:46;;;;;;;14.40;3.17;;;;;;;3.60;100.00;100207.25;5022231;28;20061;-56
2021/12/22 05:37:49;;;;;;;2.63;1.98;;;;;;;3.68;100.00;100212.22;5018802;28;20576;-56
2021/12/22 05:40:52;;;;;;;11.00;2.30;;;;;;;3.76;100.00;100216.41;5017588;28;20059;-56
2021/12/22 05:43:55;;;;;;;9.45;2.35;;;;;;;3.73;100.00;100197.97;4985149;28;20057;-56
2021/12/22 05:46:57;;;;;;;2.35;2.15;;;;;;;3.64;100.00;100181.22;4991247;28;20050;-56
2021/12/22 05:50:06;;;;;;;4.60;2.58;;;;;;;3.49;100.00;100184.63;4994942;28;20114;-56
2021/12/22 05:53:08;;;;;;;7.38;3.28;;;;;;;3.13;100.00;100175.41;4969046;28;20064;-56
2021/12/22 05:56:13;;;;;;;12.90;3.60;;;;;;;3.06;100.00;100179.81;4985821;28;20117;-56
2021/12/22 05:59:15;;;;;;;4.57;2.28;;;;;;;3.03;100.00;100172.41;4978008;28;20108;-56
2021/12/22 06:02:18;;;;;;;9.20;2.55;;;;;;;2.95;100.00;100170.16;5002601;28;20509;-56
2021/12/22 06:05:21;;;;;;;8.13;1.38;;;;;;;2.87;100.00;100169.53;4974999;28;20181;-56
2021/12/22 06:08:24;;;;;;;2.10;1.92;;;;;;;2.90;100.00;100174.16;4925162;29;20058;-57
2021/12/22 06:11:27;;;;;;;7.28;3.00;;;;;;;2.95;100.00;100176.47;4941013;28;20109;-56
2021/12/22 06:14:31;;;;;;;12.65;4.13;;;;;;;2.92;100.00;100177.28;4949703;28;20077;-57
2021/12/22 06:17:34;;;;;;;6.88;2.40;;;;;;;2.96;100.00;100183.53;4957278;28;20128;-56
2021/12/22 06:20:37;;;;;;;2.92;1.50;;;;;;;2.98;100.00;100192.16;4946593;28;20069;-56
2021/12/22 06:23:40;;;;;;;10.80;4.03;;;;;;;3.30;100.00;100193.59;4948555;28;20070;-56
2021/12/22 06:26:43;;;;;;;8.02;2.92;;;;;;;3.00;100.00;100208.22;4929897;28;20053;-56
2021/12/22 06:29:46;;;;;;;7.53;2.13;;;;;;;2.98;100.00;100203.16;4959437;28;20507;-57
2021/12/22 06:32:50;;;;;;;6.53;2.05;;;;;;;2.95;100.00;100192.97;4955504;28;20105;-56
2021/12/22 06:35:53;;;;;;;10.15;2.80;;;;;;;3.02;100.00;100187.38;4968208;28;20053;-56
2021/12/22 06:38:56;;;;;;;3.13;2.13;;;;;;;3.17;100.00;100182.41;5001660;28;20569;-56
2021/12/22 06:42:00;;;;;;;9.98;3.60;;;;;;;3.22;100.00;100165.44;4996086;28;20137;-57
2021/12/22 06:45:03;;;;;;;3.15;1.38;;;;;;;3.25;100.00;100175.59;4950187;28;20162;-57
2021/12/22 06:48:07;;;;;;;16.42;3.50;;;;;;;3.23;100.00;100174.47;5017864;28;20510;-57
2021/12/22 06:51:10;;;;;;;17.05;2.30;;;;;;;3.14;100.00;100176.97;4975491;28;20096;-56
2021/12/22 06:54:13;;;;;;;15.43;2.05;;;;;;;3.12;100.00;100171.88;5019012;28;20141;-56
2021/12/22 06:57:20;;;;;;;12.00;2.65;;;;;;;3.12;100.00;100179.38;4977386;28;20092;-56
2021/12/22 07:00:23;;;;;;;12.70;2.67;;;;;;;3.12;100.00;100171.88;4995000;28;20063;-56
2021/12/22 07:03:27;;;;;;;16.08;5.03;;;;;;;3.14;100.00;100165.97;4972652;28;20184;-57
2021/12/22 07:06:31;;;;;;;4.82;1.02;;;;;;;3.14;100.00;100185.22;4982430;28;20244;-56
2021/12/22 07:09:34;;;;;;;7.97;3.78;;;;;;;3.14;100.00;100199.75;5018244;28;20098;-56
2021/12/22 07:12:46;;;;;;;21.58;3.25;;;;;;;3.27;100.00;100186.94;5017705;28;20063;-56
2021/12/22 07:15:49;;;;;;;7.82;3.58;;;;;;;3.44;100.00;100191.41;5024783;28;22737;-56
2021/12/22 07:18:52;;;;;;;2.83;1.90;;;;;;;3.45;100.00;100186.66;5025532;28;20080;-57
2021/12/22 07:21:55;;;;;;;4.28;3.33;;;;;;;3.31;100.00;100182.19;4999578;28;20180;-56
2021/12/22 07:24:59;;;;;;;8.60;2.58;;;;;;;3.12;100.00;100187.63;5025294;28;20052;-57
2021/12/22 07:28:02;;;;;;;9.57;1.63;;;;;;;3.05;100.00;100186.50;4946371;28;20104;-57
2021/12/22 07:31:05;;;;;;;7.82;2.25;;;;;;;3.03;100.00;100188.16;4965455;28;20053;-57
2021/12/22 07:34:15;;;;;;;4.85;1.85;;;;;;;2.93;100.00;100181.59;4988125;28;20065;-57
2021/12/22 07:37:21;;;;;;;15.33;3.83;;;;;;;2.92;100.00;100174.53;4982415;28;20073;-57
2021/12/22 07:40:24;;;;;;;14.50;2.95;;;;;;;2.89;100.00;100167.13;4950761;28;20300;-57
2021/12/22 07:43:29;;;;;;;10.45;4.13;;;;;;;2.97;100.00;100160.31;4947619;28;20053;-57
2021/12/22 07:46:32;;;;;;;4.28;2.90;;;;;;;3.03;100.00;100155.88;4970097;28;20047;-57
2021/12/22 07:49:35;;;;;;;10.63;3.00;;;;;;;3.06;100.00;100165.28;4970180;28;20569;-56
2021/12/22 07:52:38;;;;;;;2.20;0.88;;;;;;;3.12;100.00;100188.38;5007819;28;20572;-56
2021/12/22 07:55:41;;;;;;;9.07;3.20;;;;;;;3.06;100.00;100190.03;5023931;28;20052;-57
2021/12/22 07:58:43;;;;;;;6.25;2.55;;;;;;;2.98;100.00;100180.34;4991837;28;21070;-57
2021/12/22 08:01:47;;;;;;;6.18;3.20;;;;;;;3.02;100.00;100175.56;5004836;28;20053;-56
2021/12/22 08:04:50;;;;;;;4.78;2.38;;;;;;;3.15;100.00;100181.25;5000477;28;20056;-56
2021/12/22 08:07:54;;;;;;;11.88;2.45;;;;;;;3.27;100.00;100180.69;5013667;28;20176;-57
2021/12/22 08:10:57;;;;;;;4.32;1.42;;;;;;;3.32;100.00;100177.44;4984117;28;20111;-57
2021/12/22 08:14:00;;;;;;;8.60;3.47;;;;;;;3.32;100.00;100171.94;4997654;28;20068;-57
2021/12/22 08:17:05;;;;;;;20.45;4.55;;;;;;;3.32;100.00;100182.94;4991108;28;20457;-56
2021/12/22 08:20:08;;;;;;;4.03;2.75;;;;;;;3.33;100.00;100190.03;4975253;28;20132;-57
2021/12/22 08:23:11;;;;;;;2.83;1.65;;;;;;;3.26;100.00;100190.91;4986226;28;20107;-57
2021/12/22 08:26:15;;;;;;;18.63;2.88;;;;;;;3.30;100.00;100202.63;4988202;28;20060;-56
2021/12/22 08:29:18;;;;;;;21.83;4.43;;;;;;;3.37;100.00;100196.25;4987557;28;20144;-57
2021/12/22 08:32:22;;;;;;;4.45;2.25;;;;;;;3.42;100.00;100198.53;5005392;28;20057;-57
2021/12/22 08:35:28;;;;;;;1.75;1.25;;;;;;;3.46;100.00;100185.47;4997152;28;20107;-58
2021/12/22 08:38:50;;;;;;;20.55;2.42;;;;;;;3.49;100.00;100190.91;4999139;28;20107;-57
2021/12/22 08:41:53;;;;;;;3.03;2.10;;;;;;;3.49;100.00;100181.88;5001443;28;20059;-57
2021/12/22 08:44:57;;;;;;;5.88;2.65;;;;;;;3.44;100.00;100174.09;5007663;28;20398;-57
2021/12/22 08:48:00;;;;;;;2.70;2.35;;;;;;;3.60;100.00;100171.44;4988634;28;20104;-57
2021/12/22 08:51:03;;;;;;;18.63;1.75;;;;;;;3.62;100.00;100163.53;4999634;28;20141;-57
2021/12/22 08:54:06;;;;;;;5.53;2.28;;;;;;;3.71;100.00;100163.78;4996170;28;20152;-57
2021/12/22 08:57:10;;;;;;;6.75;2.13;;;;;;;3.89;100.00;100166.19;4990332;28;20099;-57
2021/12/22 09:00:14;;;;;;;14.25;4.22;;;;;;;3.93;100.00;100162.19;4975411;28;20199;-57
2021/12/22 09:03:17;;;;;;;4.50;2.08;;;;;;;3.94;100.00;100163.75;4936144;28;20050;-57
2021/12/22 09:06:20;;;;;;;14.80;3.05;;;;;;;4.00;100.00;100162.06;4924755;28;20118;-57
2021/12/22 09:09:23;;;;;;;3.15;1.10;;;;;;;4.03;100.00;100155.69;4930644;29;20059;-57
2021/12/22 09:12:27;;;;;;;5.88;1.85;;;;;;;4.06;100.00;100154.84;4930576;28;20100;-57
2021/12/22 09:15:30;;;;;;;12.80;4.28;;;;;;;4.10;100.00;100150.03;4917256;29;20653;-57
2021/12/22 09:18:34;;;;;;;3.47;1.60;;;;;;;4.13;100.00;100142.91;4918969;28;20062;-57
2021/12/22 09:21:38;;;;;;;5.40;2.50;;;;;;;4.21;100.00;100142.31;4909212;29;20143;-57
2021/12/22 09:24:40;;;;;;;5.80;2.60;;;;;;;4.30;100.00;100150.03;4934147;29;20130;-57
2021/12/22 09:27:43;;;;;;;4.13;2.50;;;;;;;4.36;100.00;100145.56;4937666;28;20441;-57
2021/12/22 09:30:46;;;;;;;8.48;3.58;;;;;;;4.36;100.00;100131.78;4892970;29;20467;-57
2021/12/22 09:33:50;;;;;;;11.20;1.88;;;;;;;4.37;100.00;100134.13;4898640;29;20100;-57
2021/12/22 09:36:53;;;;;;;10.25;2.65;;;;;;;4.32;100.00;100134.63;4933557;29;20139;-57
2021/12/22 09:39:56;;;;;;;6.13;2.70;;;;;;;4.28;100.00;100130.38;4862759;29;20457;-57
2021/12/22 09:42:59;;;;;;;12.40;2.42;;;;;;;4.40;100.00;100127.75;4851060;29;20060;-57
2021/12/22 09:46:08;;;;;;;8.57;2.25;;;;;;;4.71;100.00;100127.44;4828179;29;20121;-57
2021/12/22 09:49:36;;;;;;;7.93;2.30;;;;;;;4.72;100.00;100135.28;4878776;29;20184;-57
2021/12/22 09:52:39;;;;;;;8.80;1.73;;;;;;;4.42;100.00;100128.09;4888320;29;20106;-57
2021/12/22 09:55:43;;;;;;;8.18;3.20;;;;;;;4.42;100.00;100130.06;4894039;28;20102;-57
2021/12/22 09:58:47;;;;;;;9.50;2.85;;;;;;;4.47;100.00;100137.84;4977479;28;20650;-57
2021/12/22 10:01:51;;;;;;;4.97;2.85;;;;;;;4.49;100.00;100124.41;4983695;28;20089;-57
2021/12/22 10:04:55;;;;;;;1.05;0.95;;;;;;;4.41;100.00;100111.97;4961970;28;20518;-57
2021/12/22 10:08:27;;;;;;;4.40;2.38;;;;;;;4.24;100.00;100100.16;4983516;28;20128;-57
2021/12/22 10:11:33;;;;;;;7.35;2.65;;;;;;;4.27;100.00;100093.75;4962607;28;20113;-57
2021/12/22 10:14:48;;;;;;;8.30;2.22;;;;;;;4.33;100.00;100100.31;4939604;28;20198;-57
2021/12/22 10:17:53;;;;;;;13.00;3.35;;;;;;;4.28;100.00;100106.34;4960094;28;20118;-57
2021/12/22 10:21:16;;;;;;;9.25;3.08;;;;;;;4.33;100.00;100114.09;4981843;28;20064;-57
2021/12/22 10:24:21;;;;;;;18.90;2.03;;;;;;;4.26;100.00;100102.47;4993946;28;20080;-57
2021/12/22 10:27:24;;;;;;;7.15;2.92;;;;;;;4.42;100.00;100099.72;5032478;28;20492;-57
2021/12/22 10:30:34;;;;;;;10.77;2.95;;;;;;;4.49;100.00;100091.31;4968236;28;20567;-57
2021/12/22 10:33:43;;;;;;;6.22;2.67;;;;;;;4.52;100.00;100087.69;4961621;28;20057;-57
2021/12/22 10:36:47;;;;;;;8.25;2.33;;;;;;;4.42;100.00;100083.19;4982708;28;20062;-57
2021/12/22 10:39:50;;;;;;;18.17;2.53;;;;;;;4.48;100.00;100079.50;4968568;28;20092;-57
2021/12/22 10:42:54;;;;;;;5.03;3.17;;;;;;;4.57;100.00;100074.16;4987925;28;20506;-57
2021/12/22 10:46:02;;;;;;;2.30;1.70;;;;;;;4.58;100.00;100064.69;4995976;28;20243;-57
2021/12/22 10:49:25;;;;;;;3.42;1.48;;;;;;;4.64;100.00;100062.19;4951906;28;20110;-57
2021/12/22 10:52:30;;;;;;;3.10;1.08;;;;;;;4.67;100.00;100050.31;4961906;28;20193;-57
2021/12/22 10:55:37;;;;;;;8.68;2.55;;;;;;;4.69;100.00;100047.13;4966805;28;20061;-56
2021/12/22 10:58:40;;;;;;;4.50;1.48;;;;;;;4.75;100.00;100034.34;5007450;28;20053;-57
2021/12/22 11:01:57;;;;;;;10.10;2.30;;;;;;;4.80;100.00;100033.84;4993396;28;20438;-57
2021/12/22 11:05:06;;;;;;;5.32;0.93;;;;;;;4.87;100.00;100020.66;4994078;28;20592;-57
2021/12/22 11:08:22;;;;;;;2.80;0.98;;;;;;;4.89;100.00;100017.47;5001216;28;20140;-57
2021/12/22 11:11:36;;;;;;;13.82;1.58;;;;;;;4.97;100.00;100007.78;4988659;28;20584;-57
2021/12/22 11:14:42;;;;;;;14.55;1.88;;;;;;;4.99;100.00;99991.56;4987322;28;20197;-57
2021/12/22 11:17:44;;;;;;;17.42;2.38;;;;;;;5.03;100.00;99989.47;4981512;28;20063;-57
2021/12/22 11:21:30;;;;;;;3.30;2.08;;;;;;;5.11;100.00;99983.34;4960745;28;20403;-57
2021/12/22 11:24:42;;;;;;;5.13;1.83;;;;;;;5.15;100.00;99991.53;4945287;28;20050;-57
2021/12/22 11:27:45;;;;;;;;;;;;;;;5.27;100.00;99988.81;4955768;28;20054;-57
2021/12/22 11:30:49;;;;;;;10.32;2.22;;;;;;;5.16;100.00;99968.22;4977480;28;20115;-57
2021/12/22 11:33:53;;;;;;;4.78;1.52;;;;;;;5.12;100.00;99973.84;4958996;28;20049;-57
2021/12/22 11:36:57;;;;;;;12.10;2.15;;;;;;;5.08;100.00;99959.38;4976974;28;20204;-56
2021/12/22 11:40:03;;;;;;;7.43;1.38;;;;;;;5.09;100.00;99962.91;4979908;28;20403;-57
2021/12/22 11:43:06;;;;;;;6.65;1.50;;;;;;;5.08;100.00;99953.84;4944608;28;20057;-57
2021/12/22 11:46:11;;;;;;;4.80;1.92;;;;;;;5.11;100.00;99949.47;4966133;28;20054;-57
2021/12/22 11:49:19;;;;;;;3.00;0.98;;;;;;;5.14;100.00;99945.81;4987768;28;20104;-57
2021/12/22 11:52:39;;;;;;;4.57;1.50;;;;;;;5.16;100.00;99937.88;5014409;28;20060;-57
2021/12/22 11:55:45;;;;;;;5.20;1.70;;;;;;;5.19;100.00;99937.00;4994617;28;20080;-57
2021/12/22 11:58:48;;;;;;;3.90;1.20;;;;;;;5.18;100.00;99935.44;5009632;28;20057;-57
2021/12/22 12:02:19;;;;;;;2.92;1.00;;;;;;;5.24;100.00;99928.19;5024487;28;20497;-57
2021/12/22 12:05:22;;;;;;;5.25;1.48;;;;;;;5.27;100.00;99927.28;4991805;28;20076;-57
2021/12/22 12:08:36;;;;;;;2.97;1.67;;;;;;;5.26;100.00;99929.28;4961351;28;20061;-57
2021/12/22 12:11:50;;;;;;;12.57;1.98;;;;;;;5.26;100.00;99926.50;4960321;28;20053;-57
2021/12/22 12:15:11;;;;;;;23.40;3.10;;;;;;;5.26;100.00;99923.75;4972522;28;20057;-57
2021/12/22 12:23:43;;;;;;;3.08;0.63;;;;;;;5.37;100.00;99904.16;5041577;27;20136;-57
2021/12/22 12:26:48;;;;;;;10.77;1.83;;;;;;;5.35;100.00;99903.78;5009676;28;20426;-57
2021/12/22 12:30:01;;;;;;;0.55;0.55;;;;;;;5.37;100.00;99904.16;5026050;28;20503;-56
2021/12/22 12:35:55;;;;;;;;;;;;;;;5.43;100.00;99902.38;2287385;28;192280791;-56
2021/12/22 12:38:59;;;;;;;8.35;1.60;;;;;;;5.42;100.00;99889.78;4924085;28;31208;-57
2021/12/22 12:42:02;;;;;;;3.88;2.30;;;;;;;5.41;100.00;99877.19;5008655;28;20053;-57
2021/12/22 12:45:48;;;;;;;4.93;2.72;;;;;;;5.47;100.00;99869.91;5006456;28;20441;-53
2021/12/22 12:49:07;;;;;;;2.45;1.17;;;;;;;5.39;100.00;99868.59;4945260;28;20066;-53
2021/12/22 12:52:19;;;;;;;7.03;2.30;;;;;;;5.45;100.00;99864.06;4996260;28;20050;-53
2021/12/22 12:55:23;;;;;;;5.88;1.30;;;;;;;5.44;100.00;99864.47;4997935;28;20065;-53
2021/12/22 12:58:28;;;;;;;2.53;1.50;;;;;;;5.42;100.00;99845.59;4989591;28;20130;-54
2021/12/22 13:01:52;;;;;;;5.45;2.33;;;;;;;5.42;100.00;99833.75;4955152;28;20061;-54
2021/12/22 13:05:11;;;;;;;2.78;1.52;;;;;;;5.33;100.00;99834.41;5018435;28;20048;-53
2021/12/22 13:08:14;;;;;;;2.85;1.77;;;;;;;5.38;100.00;99822.84;5025508;28;20064;-53
2021/12/22 13:11:18;;;;;;;5.57;2.70;;;;;;;5.41;100.00;99819.22;4991903;28;20049;-53
2021/12/22 13:18:15;;;;;;;0.88;0.75;;;;;;;5.59;100.00;99793.81;4859074;29;20060;-54
2021/12/22 13:21:26;;;;;;;1.42;1.33;;;;;;;5.64;100.00;99780.19;4915179;28;20054;-54
2021/12/22 13:24:32;;;;;;;17.00;2.30;;;;;;;5.59;100.00;99782.75;4892996;29;20104;-54
2021/12/22 13:27:42;;;;;;;6.53;3.13;;;;;;;5.62;100.00;99785.38;4847970;29;20065;-53
2021/12/22 13:30:54;;;;;;;3.67;1.50;;;;;;;5.61;100.00;99786.59;4880743;29;20075;-54
2021/12/22 13:34:02;;;;;;;3.28;2.10;;;;;;;5.62;100.00;99782.63;4849020;29;20093;-54
2021/12/22 13:37:05;;;;;;;5.78;1.45;;;;;;;5.68;100.00;99786.38;4895419;29;20452;-53
2021/12/22 13:40:09;;;;;;;2.45;1.23;;;;;;;5.51;100.00;99787.72;4891833;29;20523;-52
2021/12/22 13:43:36;;;;;;;1.55;0.88;;;;;;;5.49;100.00;99794.91;4888673;29;20563;-52
2021/12/22 13:46:40;;;;;;;10.48;2.50;;;;;;;5.46;100.00;99793.78;4914442;29;20059;-53
2021/12/22 13:49:44;;;;;;;5.88;1.75;;;;;;;5.51;100.00;99787.72;4943543;28;20171;-53
2021/12/22 13:52:47;;;;;;;6.47;1.90;;;;;;;5.58;100.00;99779.22;4980213;28;20498;-53
2021/12/22 13:55:52;;;;;;;2.10;1.08;;;;;;;5.54;100.00;99763.97;4990640;28;20466;-53
2021/12/22 13:58:58;;;;;;;14.32;2.15;;;;;;;5.51;100.00;99765.63;4940135;28;20057;-53
2021/12/22 14:02:04;;;;;;;3.47;1.17;;;;;;;5.59;100.00;99761.41;4943657;28;20066;-52
2021/12/22 14:05:19;;;;;;;4.65;2.03;;;;;;;5.58;100.00;99759.88;4959401;28;20073;-53
2021/12/22 14:08:24;;;;;;;12.13;1.85;;;;;;;5.69;100.00;99746.50;4957527;28;20053;-52
2021/12/22 14:11:33;;;;;;;15.38;1.70;;;;;;;5.68;100.00;99742.16;4938221;29;20061;-54
2021/12/22 14:14:46;;;;;;;4.47;1.42;;;;;;;5.65;100.00;99737.53;5004206;28;20056;-53
2021/12/22 14:17:51;;;;;;;2.22;2.03;;;;;;;5.73;100.00;99738.84;5004627;28;20049;-54
2021/12/22 14:20:55;;;;;;;5.50;1.20;;;;;;;5.75;100.00;99746.69;5013125;28;20056;-54
2021/12/22 14:24:00;;;;;;;6.22;1.77;;;;;;;5.80;100.00;99743.38;4981433;28;20056;-52
2021/12/22 14:27:05;;;;;;;0.93;0.93;;;;;;;5.78;100.00;99741.03;5001747;28;20064;-54
2021/12/22 14:30:28;;;;;;;2.95;0.65;;;;;;;5.81;100.00;99734.63;4973622;28;20545;-54
2021/12/22 14:33:32;;;;;;;4.57;1.45;;;;;;;5.82;100.00;99733.44;4973202;28;20049;-53
2021/12/22 14:36:47;;;;;;;1.30;0.93;;;;;;;5.73;100.00;99727.81;4974282;28;20095;-52
2021/12/22 14:39:54;;;;;;;3.70;1.48;;;;;;;5.65;100.00;99715.44;5029009;28;20048;-53
2021/12/22 14:42:59;;;;;;;2.88;1.02;;;;;;;5.58;100.00;99704.63;4980472;28;20057;-53
2021/12/22 14:46:04;;;;;;;1.98;1.50;;;;;;;5.57;100.00;99703.06;4972055;28;20061;-53